Time;durP1;ratioP1;P1;durP2;ratioP2;P2;SDS_P1;SDS_P2;PMS_P1;PMS_P2;Temp;Humidity;BMP_temperature;BMP_pressure;BME280_temperature;BME280_humidity;BME280_pressure;Samples;Min_cycle;Max_cycle;Signal;HPM_P1;HPM_P2
2023/06/06 00:00:45;;;;;;;6.57;3.03;;;;;;;17.23;92.62;98081.50;5054826;28;20205;-80
2023/06/06 00:03:11;;;;;;;2.90;2.20;;;;;;;17.17;93.32;98077.97;5054750;28;20284;-80
2023/06/06 00:05:37;;;;;;;2.47;2.30;;;;;;;17.22;92.19;98082.53;5054741;28;20217;-80
2023/06/06 00:08:05;;;;;;;2.83;2.17;;;;;;;17.22;92.39;98077.97;5054847;28;20209;-80
2023/06/06 00:10:31;;;;;;;2.60;2.40;;;;;;;17.09;93.45;98080.31;5054379;28;20676;-80
2023/06/06 00:13:01;;;;;;;3.07;2.17;;;;;;;17.05;94.57;98084.59;5054230;28;20575;-80
2023/06/06 00:15:28;;;;;;;2.20;2.10;;;;;;;17.07;93.53;98082.47;5054707;28;20288;-80
2023/06/06 00:17:55;;;;;;;2.50;2.30;;;;;;;17.02;94.18;98088.63;5055959;28;20213;-80
2023/06/06 00:20:22;;;;;;;2.40;2.20;;;;;;;17.03;94.30;98078.66;5058497;28;20205;-80
2023/06/06 00:22:53;;;;;;;4.57;2.60;;;;;;;16.99;95.28;98082.94;5058158;28;20213;-80
2023/06/06 00:25:19;;;;;;;2.20;2.10;;;;;;;17.00;94.80;98085.38;5058559;28;20209;-81
2023/06/06 00:27:46;;;;;;;2.60;2.40;;;;;;;16.91;95.68;98083.41;5057995;28;20259;-80
2023/06/06 00:30:12;;;;;;;2.87;2.23;;;;;;;16.84;96.15;98083.66;5058079;28;20296;-80
2023/06/06 00:32:39;;;;;;;3.27;2.53;;;;;;;16.89;96.35;98091.75;5058313;28;20201;-80
2023/06/06 00:35:06;;;;;;;2.47;2.27;;;;;;;16.78;98.14;98089.25;5058183;28;20300;-80
2023/06/06 00:37:32;;;;;;;3.40;2.40;;;;;;;16.73;98.44;98079.25;5057486;28;20275;-80
2023/06/06 00:39:58;;;;;;;2.73;2.40;;;;;;;16.69;99.05;98083.53;5057621;28;20692;-80
2023/06/06 00:42:25;;;;;;;2.40;2.20;;;;;;;16.86;97.51;98092.25;5058293;28;20216;-81
2023/06/06 00:44:52;;;;;;;2.67;2.47;;;;;;;16.76;98.10;98076.06;5057662;28;20215;-81
2023/06/06 00:47:18;;;;;;;2.70;2.40;;;;;;;16.72;100.00;98090.25;5057833;28;20249;-80
2023/06/06 00:49:47;;;;;;;2.30;2.20;;;;;;;16.66;100.00;98081.38;5057885;28;20212;-80
2023/06/06 00:52:14;;;;;;;3.90;2.50;;;;;;;16.56;100.00;98085.84;5057822;28;20221;-81
2023/06/06 00:54:43;;;;;;;2.43;2.23;;;;;;;16.51;100.00;98089.28;5058005;28;20212;-80
2023/06/06 00:57:10;;;;;;;3.67;2.47;;;;;;;16.52;100.00;98085.53;5057233;28;20232;-80
2023/06/06 00:59:38;;;;;;;4.30;2.40;;;;;;;16.54;100.00;98078.03;5057511;28;20201;-81
2023/06/06 01:02:09;;;;;;;4.40;2.40;;;;;;;16.51;100.00;98089.28;5058390;28;20207;-80
2023/06/06 01:04:40;;;;;;;2.70;2.50;;;;;;;16.42;100.00;98079.28;5057525;28;20251;-80
2023/06/06 01:07:12;;;;;;;2.63;2.40;;;;;;;16.47;100.00;98082.81;5057767;28;20221;-81
2023/06/06 01:09:40;;;;;;;2.70;2.50;;;;;;;16.47;100.00;98082.81;5057611;28;20556;-81
2023/06/06 01:12:27;;;;;;;2.80;2.60;;;;;;;16.42;100.00;98079.28;5057479;28;20216;-80
2023/06/06 01:15:01;;;;;;;3.53;2.70;;;;;;;16.39;100.00;98083.25;5057304;28;20186;-80
2023/06/06 01:17:28;;;;;;;2.73;2.43;;;;;;;16.32;100.00;98074.59;5057437;28;20229;-81
2023/06/06 01:19:59;;;;;;;4.10;2.87;;;;;;;16.30;100.00;98074.06;5057019;28;20212;-80
2023/06/06 01:22:27;;;;;;;2.97;2.60;;;;;;;16.25;100.00;98074.00;5056901;28;20216;-80
2023/06/06 01:24:55;;;;;;;2.50;2.23;;;;;;;16.27;100.00;98079.91;5056752;28;20196;-81
2023/06/06 01:27:22;;;;;;;3.00;2.80;;;;;;;16.26;100.00;98074.81;5057095;28;20591;-81
2023/06/06 01:29:49;;;;;;;2.63;2.43;;;;;;;16.18;100.00;98070.72;5056218;28;20205;-80
2023/06/06 01:32:40;;;;;;;3.73;2.87;;;;;;;16.10;100.00;98073.84;5057985;28;20625;-80
2023/06/06 01:35:17;;;;;;;3.37;2.83;;;;;;;16.08;100.00;98073.31;5057024;28;20197;-81
2023/06/06 01:37:49;;;;;;;3.10;2.80;;;;;;;16.10;100.00;98067.69;5057334;28;20219;-81
2023/06/06 01:40:19;;;;;;;3.13;2.73;;;;;;;16.08;100.00;98067.94;5057388;28;20288;-81
2023/06/06 01:42:50;;;;;;;5.33;2.97;;;;;;;15.93;100.00;98059.72;5056621;28;20656;-80
2023/06/06 01:45:25;;;;;;;3.37;3.07;;;;;;;15.96;100.00;98061.13;5056188;28;20644;-81
2023/06/06 01:47:52;;;;;;;3.03;2.60;;;;;;;15.86;100.00;98064.50;5057000;28;20276;-80
2023/06/06 01:50:19;;;;;;;3.20;2.90;;;;;;;15.85;100.00;98065.56;5056723;28;20211;-81
2023/06/06 01:52:46;;;;;;;3.77;2.70;;;;;;;15.83;100.00;98064.97;5056380;28;20214;-80
2023/06/06 01:55:12;;;;;;;3.07;2.87;;;;;;;15.79;100.00;98065.75;5056441;28;20233;-80
2023/06/06 01:57:38;;;;;;;3.30;2.90;;;;;;;15.88;100.00;98075.75;5056508;28;20221;-80
2023/06/06 02:00:08;;;;;;;4.43;3.50;;;;;;;15.89;100.00;98069.34;5056394;28;20292;-81
2023/06/06 02:02:34;;;;;;;3.93;3.07;;;;;;;15.82;100.00;98071.41;5056344;28;20209;-80
2023/06/06 02:05:03;;;;;;;4.33;2.50;;;;;;;15.89;100.00;98080.09;5056152;28;20205;-80
2023/06/06 02:07:29;;;;;;;3.27;3.07;;;;;;;15.84;100.00;98076.53;5056077;28;20217;-81
2023/06/06 02:09:55;;;;;;;4.10;3.10;;;;;;;15.79;100.00;98071.91;5056485;28;20212;-80
2023/06/06 02:12:22;;;;;;;3.17;2.90;;;;;;;15.77;100.00;98079.41;5056161;28;20582;-80
2023/06/06 02:14:48;;;;;;;3.93;2.90;;;;;;;15.62;100.00;98076.56;5056548;28;20202;-80
2023/06/06 02:17:15;;;;;;;3.30;3.00;;;;;;;15.61;100.00;98080.28;5055721;28;20700;-80
2023/06/06 02:19:42;;;;;;;4.53;2.67;;;;;;;15.63;100.00;98088.06;5056011;28;20212;-80
2023/06/06 02:22:08;;;;;;;2.70;2.50;;;;;;;15.72;100.00;98084.72;5056246;28;20212;-80
2023/06/06 02:24:34;;;;;;;3.23;3.00;;;;;;;15.75;100.00;98089.53;5055574;28;20213;-80
2023/06/06 02:27:01;;;;;;;3.27;3.07;;;;;;;15.77;100.00;98084.75;5055983;28;20217;-80
2023/06/06 02:29:27;;;;;;;3.40;3.10;;;;;;;15.81;100.00;98091.25;5055249;28;20232;-80
2023/06/06 02:31:54;;;;;;;3.27;2.97;;;;;;;15.79;100.00;98087.19;5055596;28;20691;-80
2023/06/06 02:34:21;;;;;;;3.70;3.20;;;;;;;15.78;100.00;98091.75;5056760;28;20216;-81
2023/06/06 02:36:49;;;;;;;3.97;3.10;;;;;;;15.81;100.00;98093.09;5055678;28;20233;-80
2023/06/06 02:39:15;;;;;;;3.53;2.93;;;;;;;15.71;100.00;98090.31;5055407;28;20694;-80
2023/06/06 02:41:42;;;;;;;3.60;3.30;;;;;;;15.64;100.00;98095.03;5054307;28;20213;-80
2023/06/06 02:44:08;;;;;;;3.73;3.40;;;;;;;15.61;100.00;98098.25;5055996;28;20212;-81
2023/06/06 02:46:35;;;;;;;4.70;3.27;;;;;;;15.55;100.00;98097.34;5055388;28;20225;-80
2023/06/06 02:49:01;;;;;;;3.20;3.00;;;;;;;15.49;100.00;98094.88;5055510;28;20244;-81
2023/06/06 02:51:27;;;;;;;4.33;3.20;;;;;;;15.42;100.00;98091.56;5055888;28;20576;-81
2023/06/06 02:53:54;;;;;;;3.60;3.20;;;;;;;15.37;100.00;98092.31;5055582;28;20213;-81
2023/06/06 02:56:20;;;;;;;3.50;3.20;;;;;;;15.37;100.00;98092.31;5055405;28;20317;-80
2023/06/06 02:58:47;;;;;;;4.40;3.33;;;;;;;15.30;100.00;98093.50;5055305;28;20205;-81
2023/06/06 03:01:13;;;;;;;3.20;2.90;;;;;;;15.25;100.00;98094.25;5055331;28;20212;-81
2023/06/06 03:03:40;;;;;;;3.20;2.90;;;;;;;15.24;100.00;98097.19;5055241;28;20224;-80
2023/06/06 03:06:07;;;;;;;3.53;3.10;;;;;;;15.19;100.00;98103.28;5054914;28;20229;-80
2023/06/06 03:08:34;;;;;;;3.47;3.17;;;;;;;15.10;100.00;98104.75;5055041;28;20208;-81
2023/06/06 03:11:00;;;;;;;4.97;3.37;;;;;;;15.21;100.00;98106.53;5054837;28;20201;-80
2023/06/06 03:13:27;;;;;;;3.13;2.83;;;;;;;15.20;100.00;98110.25;5055256;28;20214;-80
2023/06/06 03:15:53;;;;;;;3.03;2.83;;;;;;;15.22;100.00;98110.00;5054689;28;20240;-81
2023/06/06 03:18:21;;;;;;;3.40;3.10;;;;;;;15.10;100.00;98109.31;5054790;28;20236;-81
2023/06/06 03:20:53;;;;;;;3.40;3.10;;;;;;;15.13;100.00;98112.31;5055027;28;20209;-80
2023/06/06 03:23:20;;;;;;;3.40;3.10;;;;;;;15.10;100.00;98112.00;5054573;28;20217;-80
2023/06/06 03:25:49;;;;;;;3.57;3.13;;;;;;;15.12;100.00;98110.69;5054830;28;20235;-80
2023/06/06 03:28:17;;;;;;;5.33;3.20;;;;;;;15.10;100.00;98107.44;5054807;28;20205;-80
2023/06/06 03:30:45;;;;;;;3.93;3.30;;;;;;;15.02;100.00;98123.91;5054955;28;20206;-80
2023/06/06 03:33:12;;;;;;;3.90;3.20;;;;;;;15.04;100.00;98116.44;5054700;28;20205;-80
2023/06/06 03:35:38;;;;;;;3.27;2.97;;;;;;;15.00;100.00;98115.31;5054828;28;20234;-81
2023/06/06 03:38:05;;;;;;;3.40;3.10;;;;;;;15.04;100.00;98124.50;5054954;28;20229;-81
2023/06/06 03:40:31;;;;;;;5.37;3.20;;;;;;;15.06;100.00;98122.34;5055148;28;20216;-81
2023/06/06 03:42:58;;;;;;;3.47;3.20;;;;;;;15.02;100.00;98123.91;5055047;28;20202;-81
2023/06/06 03:45:25;;;;;;;3.33;3.03;;;;;;;15.06;100.00;98127.72;5054426;28;20691;-81
2023/06/06 03:47:53;;;;;;;3.13;2.93;;;;;;;15.12;100.00;98126.75;5055211;28;20201;-81
2023/06/06 03:50:21;;;;;;;3.40;3.10;;;;;;;15.09;100.00;98129.91;5054690;28;20572;-81
2023/06/06 03:52:47;;;;;;;3.50;3.20;;;;;;;15.05;100.00;98131.47;5056938;28;20205;-81
2023/06/06 03:55:14;;;;;;;3.80;3.30;;;;;;;15.10;100.00;98125.38;5058939;28;20566;-81
2023/06/06 03:57:41;;;;;;;4.40;3.33;;;;;;;15.10;100.00;98120.81;5059313;28;20228;-81
2023/06/06 04:00:11;;;;;;;3.33;3.03;;;;;;;15.12;100.00;98125.94;5059321;28;20259;-81
2023/06/06 04:02:38;;;;;;;3.37;3.10;;;;;;;15.11;100.00;98121.63;5059041;28;20255;-80
2023/06/06 04:05:06;;;;;;;3.50;3.20;;;;;;;15.10;100.00;98131.53;5058572;28;20201;-81
2023/06/06 04:07:33;;;;;;;2.83;2.57;;;;;;;15.15;100.00;98130.81;5058138;28;20727;-81
2023/06/06 04:09:59;;;;;;;3.40;3.10;;;;;;;15.21;100.00;98121.78;5058362;28;20209;-81
2023/06/06 04:12:26;;;;;;;4.67;3.17;;;;;;;15.34;100.00;98126.81;5058573;28;20292;-81
2023/06/06 04:14:53;;;;;;;4.53;3.40;;;;;;;15.29;100.00;98127.50;5058809;28;20215;-80
2023/06/06 04:17:19;;;;;;;3.50;3.20;;;;;;;15.30;100.00;98131.84;5058643;28;20678;-81
2023/06/06 04:19:47;;;;;;;3.27;2.97;;;;;;;15.35;100.00;98131.94;5058801;28;20212;-81
2023/06/06 04:22:16;;;;;;;4.10;3.40;;;;;;;15.34;100.00;98127.59;5058487;28;20205;-80
2023/06/06 04:24:43;;;;;;;4.73;3.50;;;;;;;15.36;100.00;98146.94;5058835;28;20216;-80
2023/06/06 04:27:10;;;;;;;3.60;3.30;;;;;;;15.41;100.00;98143.50;5058441;28;20221;-80
2023/06/06 04:29:36;;;;;;;3.60;3.30;;;;;;;15.41;100.00;98140.81;5058444;28;20232;-80
2023/06/06 04:32:04;;;;;;;3.63;3.27;;;;;;;15.54;100.00;98143.16;5058525;28;20205;-81
2023/06/06 04:34:31;;;;;;;4.00;3.60;;;;;;;15.48;100.00;98144.16;5058635;28;20212;-81
2023/06/06 04:37:03;;;;;;;5.13;3.63;;;;;;;15.55;100.00;98150.13;5058076;28;20628;-80
2023/06/06 04:39:30;;;;;;;4.43;3.50;;;;;;;15.62;100.00;98146.22;5058725;28;20194;-81
2023/06/06 04:41:57;;;;;;;3.57;3.07;;;;;;;15.65;100.00;98147.59;5057930;28;20279;-81
2023/06/06 04:44:24;;;;;;;3.57;3.27;;;;;;;15.63;100.00;98155.88;5057707;28;20656;-81
2023/06/06 04:46:52;;;;;;;3.30;3.10;;;;;;;15.69;99.38;98152.22;5057815;28;20232;-81
2023/06/06 04:49:18;;;;;;;3.77;3.40;;;;;;;15.77;99.91;98156.31;5058490;28;20662;-81
2023/06/06 04:51:45;;;;;;;3.93;3.30;;;;;;;15.85;99.41;98154.03;5058661;28;20300;-81
2023/06/06 04:54:12;;;;;;;4.10;3.70;;;;;;;15.88;99.82;98152.72;5057657;28;20209;-81
2023/06/06 04:56:40;;;;;;;3.30;3.00;;;;;;;16.01;97.18;98153.13;5057972;28;20232;-81
2023/06/06 04:59:06;;;;;;;5.00;3.23;;;;;;;16.09;96.11;98152.69;5057952;28;20259;-80
2023/06/06 05:01:37;;;;;;;4.73;3.53;;;;;;;15.98;94.96;98156.34;5058069;28;20209;-80
2023/06/06 05:04:04;;;;;;;4.80;3.40;;;;;;;16.04;94.49;98158.00;5056686;28;20639;-80
2023/06/06 05:06:33;;;;;;;4.10;3.70;;;;;;;16.22;94.02;98159.53;5058096;28;20229;-81
2023/06/06 05:09:04;;;;;;;4.03;3.40;;;;;;;16.62;92.52;98152.75;5058096;28;20213;-80
2023/06/06 05:11:31;;;;;;;3.47;3.10;;;;;;;16.90;89.53;98157.00;5057732;28;20186;-80
2023/06/06 05:13:57;;;;;;;4.23;3.57;;;;;;;16.95;88.18;98160.53;5058609;28;20219;-80
2023/06/06 05:16:23;;;;;;;3.73;3.10;;;;;;;17.23;86.27;98168.25;5058523;28;20221;-81
2023/06/06 05:18:50;;;;;;;5.50;3.20;;;;;;;17.68;84.45;98163.19;5057803;28;20225;-80
2023/06/06 05:21:16;;;;;;;3.90;3.60;;;;;;;17.90;80.66;98169.22;5057535;28;20220;-81
2023/06/06 05:23:43;;;;;;;3.63;3.33;;;;;;;18.23;79.37;98166.09;5057477;28;20219;-81
2023/06/06 05:26:09;;;;;;;3.77;2.90;;;;;;;17.86;81.80;98168.13;5057642;28;20229;-80
2023/06/06 05:28:35;;;;;;;3.80;3.23;;;;;;;17.64;82.25;98180.13;5057319;28;20202;-80
2023/06/06 05:31:02;;;;;;;4.77;3.47;;;;;;;17.93;79.08;98179.47;5057249;28;20673;-81
2023/06/06 05:33:30;;;;;;;4.90;3.30;;;;;;;17.65;81.27;98187.09;5056917;28;20209;-80
2023/06/06 05:35:57;;;;;;;3.40;3.10;;;;;;;17.54;79.62;98182.72;5056454;28;20679;-80
2023/06/06 05:38:25;;;;;;;4.50;3.30;;;;;;;17.36;81.61;98183.94;5057298;28;20227;-81
2023/06/06 05:40:52;;;;;;;4.27;3.33;;;;;;;17.33;82.33;98179.06;5056706;28;20205;-82
2023/06/06 05:43:18;;;;;;;3.30;3.00;;;;;;;17.22;82.38;98185.47;5057071;28;20661;-81
2023/06/06 05:45:44;;;;;;;4.20;3.40;;;;;;;17.05;82.91;98192.84;5056709;28;20312;-81
2023/06/06 05:48:11;;;;;;;6.17;3.50;;;;;;;17.23;81.31;98189.75;5057620;28;20197;-81
2023/06/06 05:50:37;;;;;;;3.50;3.20;;;;;;;17.18;82.02;98183.53;5057124;28;20211;-81
2023/06/06 05:53:03;;;;;;;5.47;3.33;;;;;;;17.05;82.41;98179.41;5057017;28;20232;-81
2023/06/06 05:55:35;;;;;;;4.13;3.50;;;;;;;17.25;81.92;98190.31;5056530;28;20252;-81
2023/06/06 05:58:03;;;;;;;5.53;3.30;;;;;;;17.32;81.36;98184.72;5056318;28;20225;-81
2023/06/06 06:00:31;;;;;;;3.93;3.03;;;;;;;17.52;78.92;98191.06;5057254;28;20201;-81
2023/06/06 06:02:59;;;;;;;6.20;3.30;;;;;;;17.47;78.99;98191.00;5057005;28;20205;-81
2023/06/06 06:05:28;;;;;;;3.90;2.90;;;;;;;17.44;79.39;98191.56;5057047;28;20249;-81
2023/06/06 06:08:02;;;;;;;3.40;3.10;;;;;;;17.63;78.69;98190.06;5056890;28;20198;-77
2023/06/06 06:10:35;;;;;;;3.43;3.10;;;;;;;17.50;79.24;98195.88;5054997;28;20197;-76
2023/06/06 06:13:03;;;;;;;3.50;3.20;;;;;;;17.49;79.82;98194.28;5054717;28;20190;-76
2023/06/06 06:15:34;;;;;;;3.70;3.37;;;;;;;17.48;80.10;98187.28;5054411;28;20232;-75
2023/06/06 06:18:01;;;;;;;3.70;3.07;;;;;;;17.55;79.55;98195.91;5054473;28;20232;-75
2023/06/06 06:20:28;;;;;;;5.57;3.50;;;;;;;17.65;78.54;98201.34;5054674;28;20209;-76
2023/06/06 06:22:54;;;;;;;3.63;3.07;;;;;;;17.53;79.28;98199.94;5054264;28;20209;-76
2023/06/06 06:25:20;;;;;;;3.20;3.00;;;;;;;17.72;78.78;98204.63;5054245;28;20205;-76
2023/06/06 06:27:47;;;;;;;3.87;3.47;;;;;;;17.80;78.29;98211.38;5054272;28;20255;-75
2023/06/06 06:30:15;;;;;;;4.73;3.30;;;;;;;17.81;79.09;98207.63;5054514;28;20205;-76
2023/06/06 06:32:42;;;;;;;4.00;3.60;;;;;;;17.95;76.79;98206.91;5053975;28;20205;-75
2023/06/06 06:35:09;;;;;;;4.63;3.30;;;;;;;17.86;76.35;98207.66;5054011;28;20213;-76
2023/06/06 06:37:37;;;;;;;4.07;3.33;;;;;;;17.90;76.16;98200.66;5054252;28;20225;-76
2023/06/06 06:40:09;;;;;;;3.40;3.00;;;;;;;17.86;77.25;98210.34;5054035;28;20730;-76
2023/06/06 06:42:40;;;;;;;4.17;3.33;;;;;;;17.98;76.91;98209.06;5053939;28;20258;-76
2023/06/06 06:45:12;;;;;;;4.70;3.30;;;;;;;18.27;73.94;98210.25;5053990;28;20679;-75
2023/06/06 06:47:38;;;;;;;3.40;3.10;;;;;;;18.10;74.05;98214.22;5054112;28;20189;-76
2023/06/06 06:50:06;;;;;;;3.40;3.10;;;;;;;18.26;73.64;98207.81;5054179;28;20306;-76
2023/06/06 06:52:35;;;;;;;3.40;3.10;;;;;;;18.25;75.44;98212.41;5053702;28;20212;-76
2023/06/06 06:55:04;;;;;;;3.67;3.30;;;;;;;18.46;73.80;98211.41;5053964;28;20205;-76
2023/06/06 06:57:30;;;;;;;4.17;3.40;;;;;;;18.44;72.29;98207.38;5053770;28;20232;-75
2023/06/06 06:59:57;;;;;;;3.73;3.13;;;;;;;18.31;73.17;98208.66;5053476;28;20691;-76
2023/06/06 07:02:28;;;;;;;4.60;3.00;;;;;;;18.53;72.99;98205.78;5053862;28;20247;-76
2023/06/06 07:04:59;;;;;;;7.43;3.40;;;;;;;18.69;72.24;98204.75;5053343;28;20209;-76
2023/06/06 07:07:26;;;;;;;3.83;3.20;;;;;;;18.88;70.24;98209.38;5053832;28;20232;-76
2023/06/06 07:09:53;;;;;;;4.53;3.80;;;;;;;18.95;70.07;98206.41;5053837;28;20213;-76
2023/06/06 07:12:20;;;;;;;3.50;2.77;;;;;;;18.96;69.63;98211.50;5053440;28;20216;-76
2023/06/06 07:14:46;;;;;;;3.37;2.87;;;;;;;19.24;68.10;98211.03;5053660;28;20574;-76
2023/06/06 07:17:15;;;;;;;3.63;3.33;;;;;;;19.34;69.02;98208.31;5053667;28;20232;-77
2023/06/06 07:19:43;;;;;;;3.80;3.10;;;;;;;19.37;66.78;98201.56;5053660;28;20315;-76
2023/06/06 07:22:10;;;;;;;3.40;3.10;;;;;;;19.48;65.86;98213.16;5053905;28;20210;-76
2023/06/06 07:24:36;;;;;;;3.87;3.20;;;;;;;19.47;65.64;98217.72;5053288;28;20220;-76
2023/06/06 07:27:04;;;;;;;4.40;3.10;;;;;;;19.67;66.25;98211.50;5052792;28;20221;-76
2023/06/06 07:29:31;;;;;;;3.33;2.97;;;;;;;19.81;64.13;98209.84;5052789;28;20209;-76
2023/06/06 07:31:57;;;;;;;3.43;3.13;;;;;;;19.77;63.95;98224.97;5053371;28;20216;-76
2023/06/06 07:34:23;;;;;;;4.10;3.00;;;;;;;19.78;65.02;98214.69;5053296;28;20201;-76
2023/06/06 07:36:50;;;;;;;4.77;3.10;;;;;;;19.80;65.00;98209.03;5053092;28;20231;-76
2023/06/06 07:39:16;;;;;;;4.80;3.37;;;;;;;19.84;66.41;98209.31;5053129;28;20229;-76
2023/06/06 07:41:43;;;;;;;4.43;3.10;;;;;;;19.99;64.79;98209.25;5053270;28;20255;-76
2023/06/06 07:44:09;;;;;;;3.03;2.73;;;;;;;19.91;65.02;98207.13;5052682;28;20216;-76
2023/06/06 07:46:36;;;;;;;3.50;2.93;;;;;;;20.09;63.89;98207.38;5053173;28;20236;-76
2023/06/06 07:49:02;;;;;;;5.63;3.10;;;;;;;19.92;63.85;98212.25;5053458;28;20197;-76
2023/06/06 07:51:29;;;;;;;4.03;3.20;;;;;;;20.01;65.14;98207.91;5053195;28;20201;-76
2023/06/06 07:53:55;;;;;;;4.63;3.20;;;;;;;20.17;63.73;98197.88;5052972;28;20216;-76
2023/06/06 07:56:23;;;;;;;3.20;2.90;;;;;;;20.27;62.00;98205.94;5053229;28;20256;-76
2023/06/06 07:58:52;;;;;;;3.43;3.00;;;;;;;20.22;62.08;98200.56;5053189;28;20225;-76
2023/06/06 08:01:20;;;;;;;4.27;3.10;;;;;;;20.35;62.88;98189.16;5053411;28;20304;-76
2023/06/06 08:03:50;;;;;;;4.23;3.53;;;;;;;20.33;61.99;98208.34;5052929;28;20619;-76
2023/06/06 08:06:19;;;;;;;3.60;3.27;;;;;;;20.26;62.58;98205.13;5052787;28;20785;-76
2023/06/06 08:08:48;;;;;;;3.40;3.00;;;;;;;20.39;62.14;98203.72;5053110;28;20201;-76
2023/06/06 08:11:15;;;;;;;3.87;3.00;;;;;;;20.77;60.48;98203.78;5053122;28;20209;-76
2023/06/06 08:13:41;;;;;;;4.07;3.00;;;;;;;20.70;61.26;98208.66;5052937;28;20228;-76
2023/06/06 08:16:08;;;;;;;3.40;3.10;;;;;;;20.74;60.81;98204.31;5052622;28;20221;-76
2023/06/06 08:18:35;;;;;;;2.93;2.73;;;;;;;20.68;60.10;98207.31;5053011;28;20267;-76
2023/06/06 08:21:01;;;;;;;4.17;2.93;;;;;;;20.66;58.65;98204.13;5053092;28;20258;-76
2023/06/06 08:23:28;;;;;;;3.27;2.90;;;;;;;20.78;59.17;98207.25;5052660;28;20208;-76
2023/06/06 08:25:55;;;;;;;4.40;3.10;;;;;;;20.89;59.37;98206.91;5052504;28;20236;-76
2023/06/06 08:28:23;;;;;;;3.77;3.20;;;;;;;20.81;59.29;98202.13;5052805;28;20205;-76
2023/06/06 08:30:51;;;;;;;3.50;3.20;;;;;;;20.80;59.51;98207.81;5053040;28;20201;-76
2023/06/06 08:33:18;;;;;;;2.90;2.67;;;;;;;21.00;57.92;98205.78;5053058;28;20206;-76
2023/06/06 08:35:45;;;;;;;3.10;2.90;;;;;;;20.79;59.00;98204.28;5052952;28;20229;-76
2023/06/06 08:38:12;;;;;;;3.33;3.00;;;;;;;20.77;57.74;98205.66;5052835;28;20221;-76
2023/06/06 08:40:39;;;;;;;3.47;3.17;;;;;;;21.09;57.09;98197.88;5056631;28;20220;-76
2023/06/06 08:43:09;;;;;;;3.30;3.00;;;;;;;20.88;57.51;98201.78;5056887;28;20209;-76
2023/06/06 08:45:37;;;;;;;6.60;3.17;;;;;;;20.92;57.14;98192.06;5056086;28;20221;-76
2023/06/06 08:48:06;;;;;;;6.90;3.47;;;;;;;21.08;57.26;98188.16;5055996;28;20595;-76
2023/06/06 08:50:33;;;;;;;3.77;2.93;;;;;;;21.13;56.70;98191.63;5056160;28;20699;-76
2023/06/06 08:53:04;;;;;;;4.90;3.00;;;;;;;21.08;58.35;98193.56;5056382;28;20205;-76
2023/06/06 08:55:34;;;;;;;5.00;2.97;;;;;;;21.38;56.99;98198.72;5055872;28;20233;-76
2023/06/06 08:58:03;;;;;;;3.70;3.00;;;;;;;21.35;56.74;98191.19;5055836;28;20221;-76
2023/06/06 09:00:29;;;;;;;9.80;3.23;;;;;;;21.63;55.45;98193.06;5056077;28;20338;-76
2023/06/06 09:02:59;;;;;;;3.43;2.57;;;;;;;21.81;55.85;98200.47;5056075;28;20205;-76
2023/06/06 09:05:25;;;;;;;3.33;3.00;;;;;;;21.80;54.21;98194.25;5056060;28;20244;-76
2023/06/06 09:07:55;;;;;;;4.53;3.17;;;;;;;21.73;54.70;98192.97;5055978;28;20213;-76
2023/06/06 09:10:22;;;;;;;3.25;2.75;;;;;;;22.02;50.49;98199.97;5056047;28;20256;-76
2023/06/06 09:12:49;;;;;;;3.17;2.88;;;;;;;22.01;48.59;98192.94;5056046;28;20206;-76
2023/06/06 09:15:16;;;;;;;4.20;2.90;;;;;;;21.19;50.14;98189.69;5055793;28;20213;-76
2023/06/06 09:17:46;;;;;;;3.65;2.75;;;;;;;21.41;49.83;98195.44;5055952;28;20201;-76
2023/06/06 09:20:15;;;;;;;4.28;2.85;;;;;;;21.90;51.04;98190.63;5055990;28;20201;-76
2023/06/06 09:22:42;;;;;;;2.80;2.60;;;;;;;22.29;48.70;98199.38;5055439;28;20771;-76
2023/06/06 09:25:20;;;;;;;3.37;2.60;;;;;;;22.61;49.86;98188.69;5055561;28;20189;-76
2023/06/06 09:27:46;;;;;;;3.87;2.80;;;;;;;22.74;46.55;98187.94;5055647;28;20205;-76
2023/06/06 09:30:31;;;;;;;3.20;2.90;;;;;;;21.98;46.43;98195.44;5055483;28;20307;-76
2023/06/06 09:33:02;;;;;;;11.25;3.55;;;;;;;22.32;47.64;98193.38;5055466;28;20653;-76
2023/06/06 09:35:43;;;;;;;4.03;3.10;;;;;;;22.60;46.13;98197.88;5055136;28;20663;-76
2023/06/06 09:38:15;;;;;;;13.95;5.43;;;;;;;22.68;47.38;98189.09;5055612;28;20213;-76
2023/06/06 09:40:50;;;;;;;3.35;2.70;;;;;;;22.66;46.10;98186.69;5055502;28;20197;-76
2023/06/06 09:43:23;;;;;;;7.35;3.30;;;;;;;22.50;46.03;98188.00;5055198;28;20671;-76
2023/06/06 09:45:55;;;;;;;4.22;2.63;;;;;;;22.47;47.47;98183.16;5055279;28;20236;-76
2023/06/06 09:48:28;;;;;;;3.85;3.30;;;;;;;22.67;46.52;98190.22;5055179;28;20247;-76
2023/06/06 09:50:55;;;;;;;3.10;2.80;;;;;;;22.84;47.74;98176.94;5054288;28;20296;-76
2023/06/06 09:53:26;;;;;;;4.22;2.67;;;;;;;23.10;47.72;98186.28;5056204;28;20246;-76
2023/06/06 09:55:54;;;;;;;3.65;3.30;;;;;;;23.05;47.11;98179.03;5055284;28;20592;-76
2023/06/06 09:58:22;;;;;;;4.97;3.05;;;;;;;23.27;46.98;98181.97;5055109;28;20225;-76
2023/06/06 10:00:50;;;;;;;4.05;3.15;;;;;;;23.36;48.06;98180.19;5055260;28;20212;-76
2023/06/06 10:03:19;;;;;;;3.30;2.88;;;;;;;23.44;46.86;98174.06;5054996;28;20205;-76
2023/06/06 10:05:50;;;;;;;3.38;3.03;;;;;;;23.54;44.90;98175.78;5053279;28;20228;-76
2023/06/06 10:08:18;;;;;;;4.50;3.13;;;;;;;23.34;46.70;98176.16;5054631;28;20664;-76
2023/06/06 10:10:46;;;;;;;4.50;3.30;;;;;;;22.76;47.42;98175.72;5054772;28;20548;-76
2023/06/06 10:13:14;;;;;;;3.53;3.20;;;;;;;23.12;47.36;98165.91;5054466;28;20206;-76
2023/06/06 10:15:41;;;;;;;4.38;3.30;;;;;;;23.21;46.54;98171.50;5056181;28;20228;-76
2023/06/06 10:18:09;;;;;;;3.28;2.97;;;;;;;22.76;46.35;98170.28;5054510;28;20213;-76
2023/06/06 10:20:36;;;;;;;3.53;3.20;;;;;;;22.81;46.98;98162.06;5054847;28;20220;-75
2023/06/06 10:23:03;;;;;;;4.70;3.30;;;;;;;23.10;46.75;98159.97;5054231;28;20299;-76
2023/06/06 10:25:30;;;;;;;4.93;3.08;;;;;;;23.50;46.95;98155.78;5054633;28;20204;-76
2023/06/06 10:28:05;;;;;;;3.53;3.22;;;;;;;23.47;46.20;98151.75;5054855;28;20205;-76
2023/06/06 10:30:34;;;;;;;4.28;3.08;;;;;;;23.54;47.29;98156.78;5054549;28;20189;-76
2023/06/06 10:33:18;;;;;;;4.25;3.03;;;;;;;23.43;45.92;98153.44;5054429;28;20205;-76
2023/06/06 10:35:47;;;;;;;2.92;2.70;;;;;;;23.43;45.72;98149.94;5054592;28;20413;-76
2023/06/06 10:38:14;;;;;;;3.78;2.90;;;;;;;23.73;47.05;98152.06;5054713;28;20213;-76
2023/06/06 10:40:43;;;;;;;3.40;3.10;;;;;;;24.02;44.78;98149.91;5054503;28;20205;-76
2023/06/06 10:43:11;;;;;;;3.42;3.00;;;;;;;23.75;44.92;98153.38;5054450;28;20262;-76
2023/06/06 10:45:46;;;;;;;4.70;3.38;;;;;;;23.51;45.61;98143.84;5054089;28;20255;-76
2023/06/06 10:48:13;;;;;;;5.70;3.00;;;;;;;23.42;45.20;98143.69;5054039;28;20228;-76
2023/06/06 10:50:53;;;;;;;4.57;3.40;;;;;;;23.51;43.92;98135.69;5054318;28;20259;-76
2023/06/06 10:53:19;;;;;;;5.35;2.92;;;;;;;23.97;44.50;98144.59;5053877;28;20193;-75
2023/06/06 10:55:46;;;;;;;8.20;3.03;;;;;;;24.20;43.07;98149.00;5053762;28;20221;-76
2023/06/06 10:58:42;;;;;;;3.45;2.90;;;;;;;24.31;41.37;98134.06;5053248;28;20669;-75
2023/06/06 11:01:08;;;;;;;3.80;2.97;;;;;;;24.33;41.99;98134.59;5053189;28;20201;-76
2023/06/06 11:03:40;;;;;;;3.70;2.90;;;;;;;24.55;40.28;98134.59;5053173;28;20212;-76
2023/06/06 11:06:20;;;;;;;4.00;2.90;;;;;;;24.35;40.13;98130.44;5053518;28;20701;-76
2023/06/06 11:08:46;;;;;;;3.67;3.10;;;;;;;24.76;39.58;98130.34;5053725;28;20243;-76
2023/06/06 11:11:33;;;;;;;6.97;3.30;;;;;;;24.57;40.83;98129.69;5053751;28;20209;-76
2023/06/06 11:14:05;;;;;;;3.60;3.30;;;;;;;24.59;38.94;98136.44;5054044;28;20200;-76
2023/06/06 11:16:41;;;;;;;3.85;3.55;;;;;;;24.51;40.54;98137.13;5053659;28;20229;-76
2023/06/06 11:19:16;;;;;;;3.85;3.00;;;;;;;24.12;40.20;98122.53;5053679;28;20224;-76
2023/06/06 11:21:45;;;;;;;5.65;3.10;;;;;;;23.99;41.10;98123.34;5053575;28;20229;-76
2023/06/06 11:24:12;;;;;;;4.18;3.15;;;;;;;23.68;41.38;98125.84;5052972;28;20676;-76
2023/06/06 11:26:41;;;;;;;3.40;3.03;;;;;;;24.02;40.64;98126.25;5053344;28;20226;-76
2023/06/06 11:29:08;;;;;;;3.95;2.95;;;;;;;24.17;40.96;98125.13;5053228;28;20209;-76
2023/06/06 11:31:36;;;;;;;4.63;3.20;;;;;;;24.24;40.53;98120.09;5053362;28;20211;-75
2023/06/06 11:34:09;;;;;;;4.40;3.00;;;;;;;24.10;40.62;98116.63;5053374;28;20257;-76
2023/06/06 11:36:38;;;;;;;5.93;3.67;;;;;;;24.04;41.32;98118.63;5053521;28;20240;-76